createdAt,value
2023-01-11T00:02:12.361Z,94297.22
2023-01-11T00:04:41.713Z,94293.19
2023-01-11T00:07:10.604Z,94306.66
2023-01-11T00:09:40.898Z,94298.41
2023-01-11T00:12:12.543Z,94299.44
2023-01-11T00:14:41.437Z,94296.22
2023-01-11T00:17:10.524Z,94299.84
2023-01-11T00:19:39.477Z,94299.25
2023-01-11T00:22:08.371Z,94309.47
2023-01-11T00:24:37.333Z,94308.47
2023-01-11T00:27:07.747Z,94310.66
2023-01-11T00:29:36.717Z,94304.03
2023-01-11T00:32:05.805Z,94314.28
2023-01-11T00:34:34.741Z,94311.06
2023-01-11T00:37:04.487Z,94317.09
2023-01-11T00:39:33.380Z,94307.88
2023-01-11T00:42:19.715Z,94311.91
2023-01-11T00:45:07.649Z,94322.75
2023-01-11T00:47:53.717Z,94312.09
2023-01-11T00:50:22.719Z,94324.16
2023-01-11T00:52:51.675Z,94331.59
2023-01-11T00:55:20.854Z,94329.78
2023-01-11T00:57:50.021Z,94338.66
2023-01-11T01:00:22.574Z,94330.78
2023-01-11T01:02:52.228Z,94330.78
2023-01-11T01:05:23.621Z,94317.13
2023-01-11T01:07:52.451Z,94320.13
2023-01-11T01:10:22.061Z,94321.56
2023-01-11T01:13:08.268Z,94324.34
2023-01-11T01:15:39.238Z,94324.75
2023-01-11T01:18:08.180Z,94322.34
2023-01-11T01:20:37.078Z,94325.97
2023-01-11T01:23:06.044Z,94326.38
2023-01-11T01:25:37.507Z,94331.19
2023-01-11T01:28:06.673Z,94325.56
2023-01-11T01:30:35.571Z,94335.81
2023-01-11T01:33:05.902Z,94328.78
2023-01-11T01:35:35.661Z,94336.03
2023-01-11T01:38:04.456Z,94337.03
2023-01-11T01:40:33.419Z,94330.19
2023-01-11T01:43:02.284Z,94333.81
2023-01-11T01:45:31.263Z,94330.78
2023-01-11T01:48:03.082Z,94327.59
2023-01-11T01:50:37.569Z,94329.78
2023-01-11T01:53:11.354Z,94333.03
2023-01-11T01:55:43.080Z,94332.00
2023-01-11T01:58:15.070Z,94325.78
2023-01-11T02:00:46.443Z,94342.06
2023-01-11T02:03:18.960Z,94341.28
2023-01-11T02:05:51.329Z,94341.47
2023-01-11T02:08:28.125Z,94342.47
2023-01-11T02:10:57.354Z,94346.47
2023-01-11T02:13:26.875Z,94347.69
2023-01-11T02:16:08.876Z,94349.50
2023-01-11T02:18:39.437Z,94355.34
2023-01-11T02:21:22.718Z,94356.53
2023-01-11T02:24:04.372Z,94357.34
2023-01-11T02:27:06.062Z,94356.13
2023-01-11T02:29:45.660Z,94353.09
2023-01-11T02:32:26.678Z,94349.31
2023-01-11T02:35:04.734Z,94357.34
2023-01-11T02:37:43.362Z,94361.75
2023-01-11T02:40:23.433Z,94364.19
2023-01-11T02:43:12.671Z,94372.03
2023-01-11T02:45:52.062Z,94372.41
2023-01-11T02:48:28.117Z,94365.19
2023-01-11T02:51:02.174Z,94379.66
2023-01-11T02:53:36.845Z,94381.69
2023-01-11T02:56:11.376Z,94384.28
2023-01-11T02:58:43.688Z,94391.72
2023-01-11T03:01:14.772Z,94375.25
2023-01-11T03:03:43.667Z,94379.66
2023-01-11T03:06:16.941Z,94385.91
2023-01-11T03:09:13.669Z,94384.88
2023-01-11T03:12:14.431Z,94393.94
2023-01-11T03:14:52.729Z,94395.53
2023-01-11T03:17:36.993Z,94394.13
2023-01-11T03:20:12.363Z,94378.06
2023-01-11T03:22:54.496Z,94387.09
2023-01-11T03:25:32.465Z,94391.94
2023-01-11T03:28:10.480Z,94400.38
2023-01-11T03:30:44.501Z,94403.63
2023-01-11T03:33:22.749Z,94400.78
2023-01-11T03:36:00.095Z,94406.81
2023-01-11T03:38:34.628Z,94404.59
2023-01-11T03:41:08.325Z,94415.84
2023-01-11T03:43:41.912Z,94413.84
2023-01-11T03:46:14.972Z,94420.50
2023-01-11T03:48:47.837Z,94424.72
2023-01-11T03:51:21.024Z,94432.56
2023-01-11T03:53:51.633Z,94427.13
2023-01-11T03:56:26.531Z,94427.94
2023-01-11T03:58:55.949Z,94424.53
2023-01-11T04:01:25.902Z,94424.31
2023-01-11T04:03:56.265Z,94426.53
2023-01-11T04:06:26.335Z,94438.97
2023-01-11T04:08:55.437Z,94432.13
2023-01-11T04:11:24.295Z,94430.94
2023-01-11T04:13:53.316Z,94437.19
2023-01-11T04:16:22.248Z,94444.03
2023-01-11T04:18:51.801Z,94438.78
2023-01-11T04:21:22.557Z,94441.22
2023-01-11T04:23:51.779Z,94439.81
2023-01-11T04:26:21.721Z,94439.41
2023-01-11T04:28:53.431Z,94436.78
2023-01-11T04:31:23.258Z,94437.38
2023-01-11T04:33:52.188Z,94448.03
2023-01-11T04:36:22.615Z,94451.47
2023-01-11T04:38:51.561Z,94442.41
2023-01-11T04:41:37.910Z,94447.84
2023-01-11T04:44:06.995Z,94446.03
2023-01-11T04:46:36.394Z,94444.22
2023-01-11T04:49:05.385Z,94453.47
2023-01-11T04:51:35.746Z,94456.88
2023-01-11T04:54:04.736Z,94460.31
2023-01-11T04:56:33.923Z,94461.72
2023-01-11T04:59:02.975Z,94472.38
2023-01-11T05:01:31.898Z,94471.38
2023-01-11T05:04:01.158Z,94473.59
2023-01-11T05:06:30.203Z,94471.78
2023-01-11T05:09:00.742Z,94479.44
2023-01-11T05:11:29.879Z,94479.44
2023-01-11T05:14:00.346Z,94474.41
2023-01-11T05:16:29.669Z,94479.84
2023-01-11T05:19:01.803Z,94490.91
2023-01-11T05:21:32.963Z,94495.94
2023-01-11T05:24:05.357Z,94498.13
2023-01-11T05:26:36.075Z,94496.53
2023-01-11T05:29:07.335Z,94509.81
2023-01-11T05:31:38.696Z,94516.47
2023-01-11T05:34:08.408Z,94511.03
2023-01-11T05:36:37.924Z,94526.72
2023-01-11T05:39:08.731Z,94511.63
2023-01-11T05:41:37.873Z,94509.81
2023-01-11T05:44:24.840Z,94511.84
2023-01-11T05:46:55.098Z,94511.03
2023-01-11T05:49:24.101Z,94519.69
2023-01-11T05:51:53.103Z,94523.13
2023-01-11T05:54:23.669Z,94519.44
2023-01-11T05:56:52.683Z,94525.72
2023-01-11T05:59:21.866Z,94529.94
2023-01-11T06:01:51.554Z,94541.81
2023-01-11T06:04:20.677Z,94545.84
2023-01-11T06:06:49.670Z,94548.47
2023-01-11T06:09:18.707Z,94548.06
2023-01-11T06:11:50.760Z,94548.06
2023-01-11T06:14:19.881Z,94535.19
2023-01-11T06:16:48.884Z,94545.03
2023-01-11T06:19:18.057Z,94557.50
2023-01-11T06:21:47.239Z,94549.66
2023-01-11T06:24:16.235Z,94552.91
2023-01-11T06:26:45.444Z,94558.72
2023-01-11T06:29:16.868Z,94558.94
2023-01-11T06:31:46.062Z,94563.34
2023-01-11T06:34:15.013Z,94564.16
2023-01-11T06:36:43.982Z,94569.00
2023-01-11T06:39:12.973Z,94566.59
2023-01-11T06:41:41.893Z,94573.03
2023-01-11T06:44:10.911Z,94584.28
2023-01-11T06:46:41.485Z,94582.69
2023-01-11T06:49:10.493Z,94583.69
2023-01-11T06:51:39.693Z,94587.72
2023-01-11T06:54:09.513Z,94585.94
2023-01-11T06:56:38.533Z,94591.56
2023-01-11T06:59:07.713Z,94598.44
2023-01-11T07:01:41.519Z,94599.47
2023-01-11T07:04:10.797Z,94608.50
2023-01-11T07:06:39.967Z,94611.94
2023-01-11T07:09:08.946Z,94606.50
2023-01-11T07:11:39.339Z,94618.78
2023-01-11T07:14:08.355Z,94614.16
2023-01-11T07:16:37.444Z,94621.00
2023-01-11T07:19:07.951Z,94625.84
2023-01-11T07:21:36.971Z,94633.50
2023-01-11T07:24:06.885Z,94630.28
2023-01-11T07:26:41.272Z,94627.44
2023-01-11T07:29:10.647Z,94640.16
2023-01-11T07:31:42.260Z,94642.75
2023-01-11T07:34:12.799Z,94642.34
2023-01-11T07:36:41.926Z,94651.22
2023-01-11T07:39:11.092Z,94646.59
2023-01-11T07:41:58.345Z,94651.03
2023-01-11T07:44:27.921Z,94657.06
2023-01-11T07:46:57.143Z,94664.13
2023-01-11T07:49:28.464Z,94664.09
2023-01-11T07:51:57.453Z,94663.94
2023-01-11T07:54:26.872Z,94682.66
2023-01-11T07:56:56.880Z,94682.25
2023-01-11T07:59:25.887Z,94687.69
2023-01-11T08:01:54.891Z,94693.56
2023-01-11T08:04:23.925Z,94684.88
2023-01-11T08:06:54.394Z,94702.63
2023-01-11T08:09:23.466Z,94702.22
2023-01-11T08:12:09.832Z,94704.22
2023-01-11T08:14:41.696Z,94702.22
2023-01-11T08:17:12.506Z,94706.00
2023-01-11T08:19:42.281Z,94716.31
2023-01-11T08:22:13.057Z,94716.50
2023-01-11T08:24:42.030Z,94710.66
2023-01-11T08:27:11.292Z,94711.06
2023-01-11T08:29:44.434Z,94705.13
2023-01-11T08:32:13.168Z,94715.19
2023-01-11T08:34:42.320Z,94726.47
2023-01-11T08:37:12.721Z,94735.75
2023-01-11T08:39:43.515Z,94731.91
2023-01-11T08:42:12.542Z,94741.38
2023-01-11T08:44:41.546Z,94745.78
2023-01-11T08:47:10.666Z,94745.16
2023-01-11T08:49:43.649Z,94750.25
2023-01-11T08:52:15.907Z,94762.75
2023-01-11T08:54:44.973Z,94761.78
2023-01-11T08:57:14.002Z,94769.69
2023-01-11T08:59:43.011Z,94770.06
2023-01-11T09:02:17.669Z,94760.16
2023-01-11T09:04:46.598Z,94761.81
2023-01-11T09:07:17.157Z,94760.38
2023-01-11T09:09:46.383Z,94770.28
2023-01-11T09:12:15.394Z,94758.16
2023-01-11T09:14:44.413Z,94763.66
2023-01-11T09:17:13.500Z,94767.69
2023-01-11T09:19:42.687Z,94765.66
2023-01-11T09:22:11.685Z,94764.44
2023-01-11T09:24:44.002Z,94762.44
2023-01-11T09:27:13.099Z,94768.53
2023-01-11T09:29:42.263Z,94775.97
2023-01-11T09:32:11.379Z,94786.84
2023-01-11T09:34:42.022Z,94783.00
2023-01-11T09:37:11.091Z,94785.63
2023-01-11T09:39:41.729Z,94775.94
2023-01-11T09:42:36.835Z,94779.78
2023-01-11T09:45:13.910Z,94783.59
2023-01-11T09:47:49.412Z,94766.41
2023-01-11T09:50:24.923Z,94762.69
2023-01-11T09:52:57.961Z,94764.63
2023-01-11T09:55:34.922Z,94772.44
2023-01-11T09:58:22.093Z,94767.03
2023-01-11T10:01:01.263Z,94775.88
2023-01-11T10:04:06.630Z,94789.22
2023-01-11T10:06:46.391Z,94781.53
2023-01-11T10:18:22.820Z,94782.03
2023-01-11T10:19:10.455Z,94770.78
2023-01-11T10:21:44.524Z,94762.19
2023-01-11T10:24:21.859Z,94764.13
2023-01-11T10:26:53.911Z,94773.72
2023-01-11T10:29:48.190Z,94767.97
2023-01-11T10:32:34.738Z,94768.66
2023-01-11T10:35:34.060Z,94771.97
2023-01-11T10:38:26.113Z,94766.94
2023-01-11T10:41:06.855Z,94769.22
2023-01-11T10:43:42.028Z,94769.25
2023-01-11T10:46:17.959Z,94772.25
2023-01-11T10:48:47.688Z,94770.06
2023-01-11T10:51:27.518Z,94765.69
2023-01-11T10:57:01.672Z,94770.97
2023-01-11T11:00:04.795Z,94768.63
2023-01-11T11:03:00.705Z,94767.91
2023-01-11T11:05:37.776Z,94760.28
2023-01-11T11:08:14.938Z,94753.53
2023-01-11T11:10:52.845Z,94753.19
2023-01-11T11:13:28.587Z,94751.06
2023-01-11T11:16:05.245Z,94756.44
2023-01-11T11:18:36.550Z,94760.03
2023-01-11T11:21:12.274Z,94767.38
2023-01-11T11:23:41.325Z,94763.28
2023-01-11T11:26:11.273Z,94757.66
2023-01-11T11:29:02.138Z,94753.31
2023-01-11T11:31:32.645Z,94747.25
2023-01-11T11:34:08.465Z,94753.16
2023-01-11T11:36:44.957Z,94746.88
2023-01-11T11:39:21.853Z,94746.22
2023-01-11T11:41:53.040Z,94753.06
2023-01-11T11:44:24.732Z,94762.78
2023-01-11T11:47:04.402Z,94751.72
2023-01-11T11:49:36.218Z,94765.59
2023-01-11T11:52:07.260Z,94772.56
2023-01-11T11:54:40.890Z,94770.75
2023-01-11T11:57:19.032Z,94782.09
2023-01-11T11:59:50.235Z,94772.47
2023-01-11T12:02:26.596Z,94778.69
2023-01-11T12:04:59.880Z,94778.03
2023-01-11T12:07:34.429Z,94776.41
2023-01-11T12:10:10.514Z,94776.66
2023-01-11T12:12:51.851Z,94782.09
2023-01-11T12:15:23.733Z,94791.81
2023-01-11T12:17:53.128Z,94777.09
2023-01-11T12:20:33.159Z,94783.97
2023-01-11T12:23:20.234Z,94790.00
2023-01-11T12:26:13.088Z,94792.84
2023-01-11T12:29:04.551Z,94793.06
2023-01-11T12:31:43.912Z,94797.50
2023-01-11T12:34:29.007Z,94800.09
2023-01-11T12:37:08.679Z,94794.59
2023-01-11T12:39:45.030Z,94797.28
2023-01-11T12:42:35.634Z,94792.59
2023-01-11T12:45:19.438Z,94793.94
2023-01-11T12:48:05.697Z,94799.78
2023-01-11T12:50:42.576Z,94794.13
2023-01-11T12:53:32.072Z,94799.81
2023-01-11T12:56:20.872Z,94805.53
2023-01-11T12:58:57.189Z,94812.59
2023-01-11T13:01:39.082Z,94816.22
2023-01-11T13:04:34.652Z,94814.44
2023-01-11T13:07:11.775Z,94810.63
2023-01-11T13:09:56.282Z,94813.88
2023-01-11T13:12:32.182Z,94818.38
2023-01-11T13:15:12.042Z,94823.44
2023-01-11T13:17:46.624Z,94828.97
2023-01-11T13:20:30.905Z,94825.72
2023-01-11T13:23:06.244Z,94833.84
2023-01-11T13:25:41.071Z,94831.41
2023-01-11T13:28:24.377Z,94837.75
2023-01-11T13:30:53.771Z,94835.38
2023-01-11T13:33:25.139Z,94844.50
2023-01-11T13:36:00.421Z,94850.75
2023-01-11T13:38:40.865Z,94840.44
2023-01-11T13:41:18.994Z,94853.38
2023-01-11T13:43:56.427Z,94853.63
2023-01-11T13:46:42.999Z,94857.06
2023-01-11T13:49:22.849Z,94847.56
2023-01-11T13:51:57.930Z,94843.13
2023-01-11T13:54:35.193Z,94847.41
2023-01-11T13:57:12.210Z,94851.06
2023-01-11T13:59:46.274Z,94848.44
2023-01-11T14:02:22.476Z,94849.28
2023-01-11T14:04:56.023Z,94841.59
2023-01-11T14:07:36.180Z,94847.28
2023-01-11T14:10:25.543Z,94840.41
2023-01-11T14:13:59.122Z,94853.78
2023-01-11T14:16:38.425Z,94853.22
2023-01-11T14:19:18.912Z,94855.63
2023-01-11T14:22:10.322Z,94860.06
2023-01-11T14:24:53.428Z,94864.94
2023-01-11T14:27:49.075Z,94869.19
2023-01-11T14:30:44.293Z,94877.47
2023-01-11T14:33:33.022Z,94876.25
2023-01-11T14:36:27.260Z,94877.69
2023-01-11T14:39:10.878Z,94875.66
2023-01-11T14:42:00.092Z,94874.06
2023-01-11T14:45:00.855Z,94882.34
2023-01-11T14:47:44.668Z,94885.56
2023-01-11T14:50:26.142Z,94885.97
2023-01-11T14:53:00.490Z,94885.16
2023-01-11T14:55:31.435Z,94894.22
2023-01-11T14:58:19.367Z,94890.16
2023-01-11T15:01:11.015Z,94892.59
2023-01-11T15:03:50.011Z,94892.56
2023-01-11T15:06:22.957Z,94902.09
2023-01-11T15:08:55.342Z,94903.47
2023-01-11T15:11:33.409Z,94902.06
2023-01-11T15:14:07.296Z,94906.31
2023-01-11T15:16:55.217Z,94909.13
2023-01-11T15:19:33.540Z,94911.16
2023-01-11T15:22:06.740Z,94908.34
2023-01-11T15:24:40.528Z,94921.22
2023-01-11T15:27:25.461Z,94915.16
2023-01-11T15:29:56.677Z,94917.97
2023-01-11T15:32:31.166Z,94923.03
2023-01-11T15:35:32.965Z,94917.59
2023-01-11T15:38:13.796Z,94921.59
2023-01-11T15:40:46.613Z,94915.78
2023-01-11T15:43:46.296Z,94928.88
2023-01-11T15:47:01.808Z,94921.81
2023-01-11T15:50:12.461Z,94927.88
2023-01-11T15:53:17.459Z,94920.25
2023-01-11T15:56:18.051Z,94926.69
2023-01-11T15:59:15.724Z,94932.16
2023-01-11T16:02:09.602Z,94936.97
2023-01-11T16:04:44.849Z,94934.59
2023-01-11T16:07:23.464Z,94940.84
2023-01-11T16:10:14.175Z,94933.13
2023-01-11T16:12:54.821Z,94940.03
2023-01-11T16:15:39.800Z,94940.59
2023-01-11T16:18:15.201Z,94951.31
2023-01-11T16:20:56.663Z,94947.84
2023-01-11T16:23:25.863Z,94949.47
2023-01-11T16:25:58.922Z,94954.53
2023-01-11T16:28:28.685Z,94959.34
2023-01-11T16:30:59.219Z,94963.34
2023-01-11T16:33:30.573Z,94964.16
2023-01-11T16:36:13.482Z,94969.81
2023-01-11T16:39:02.661Z,94973.22
2023-01-11T16:41:39.893Z,94963.34
2023-01-11T16:44:19.528Z,94966.41
2023-01-11T16:47:20.381Z,94962.97
2023-01-11T16:49:52.573Z,94972.84
2023-01-11T16:52:49.833Z,94979.03
2023-01-11T16:55:23.072Z,94973.78
2023-01-11T16:57:59.392Z,94978.66
2023-01-11T17:00:38.366Z,94981.47
2023-01-11T17:03:26.042Z,94979.88
2023-01-11T17:06:02.175Z,94984.69
2023-01-11T17:08:35.075Z,94989.56
2023-01-11T17:11:12.092Z,94977.44
2023-01-11T17:14:19.262Z,94983.88
2023-01-11T17:16:54.916Z,94988.13
2023-01-11T17:19:27.230Z,94997.19
2023-01-11T17:22:01.787Z,94997.81
2023-01-11T17:24:34.512Z,95000.81
2023-01-11T17:27:06.671Z,95005.28
2023-01-11T17:29:40.479Z,95005.31
2023-01-11T17:32:18.405Z,95008.34
2023-01-11T17:34:48.084Z,95005.16
2023-01-11T17:37:20.220Z,95011.41
2023-01-11T17:39:53.401Z,95011.53
2023-01-11T17:42:40.775Z,95008.13
2023-01-11T17:45:21.118Z,95013.59
2023-01-11T17:47:57.051Z,95017.19
2023-01-11T17:50:30.219Z,95015.97
2023-01-11T17:53:08.130Z,95016.50
2023-01-11T17:55:37.435Z,95024.81
2023-01-11T17:58:18.047Z,95024.38
2023-01-11T18:01:12.102Z,95027.81
2023-01-11T18:03:44.714Z,95026.63
2023-01-11T18:06:20.444Z,95029.19
2023-01-11T18:08:52.478Z,95028.81
2023-01-11T18:11:26.580Z,95036.19
2023-01-11T18:13:58.083Z,95038.28
2023-01-11T18:16:27.961Z,95048.28
2023-01-11T18:18:59.010Z,95050.22
2023-01-11T18:21:41.511Z,95045.91
2023-01-11T18:24:43.663Z,95038.66
2023-01-11T18:27:26.074Z,95043.06
2023-01-11T18:29:56.389Z,95042.47
2023-01-11T18:32:25.921Z,95049.41
2023-01-11T18:35:00.508Z,95052.72
2023-01-11T18:37:29.830Z,95056.63
2023-01-11T18:40:01.575Z,95054.78
2023-01-11T18:42:32.902Z,95055.81
2023-01-11T18:45:02.012Z,95050.56
2023-01-11T18:47:32.809Z,95045.63
2023-01-11T18:50:03.502Z,95051.25
2023-01-11T18:52:32.839Z,95046.84
2023-01-11T18:55:02.157Z,95049.81
2023-01-11T18:57:32.388Z,95058.88
2023-01-11T19:00:01.498Z,95053.81
2023-01-11T19:02:42.681Z,95056.56
2023-01-11T19:05:18.909Z,95052.34
2023-01-11T19:07:49.176Z,95051.34
2023-01-11T19:10:20.847Z,95054.00
2023-01-11T19:12:52.599Z,95048.56
2023-01-11T19:15:22.071Z,95052.06
2023-01-11T19:17:51.165Z,95050.78
2023-01-11T19:20:21.732Z,95058.50
2023-01-11T19:22:50.928Z,95058.94
2023-01-11T19:25:20.790Z,95062.78
2023-01-11T19:27:52.881Z,95074.66
2023-01-11T19:30:23.371Z,95067.44
2023-01-11T19:32:53.894Z,95074.31
2023-01-11T19:35:25.364Z,95073.91
2023-01-11T19:37:54.823Z,95075.31
2023-01-11T19:40:24.052Z,95076.16
2023-01-11T19:42:53.203Z,95083.44
2023-01-11T19:45:22.335Z,95082.28
2023-01-11T19:47:51.408Z,95096.13
2023-01-11T19:50:20.561Z,95093.13
2023-01-11T19:52:51.202Z,95101.78
2023-01-11T19:55:20.334Z,95103.41
2023-01-11T19:57:49.503Z,95104.97
2023-01-11T20:00:20.905Z,95101.41
2023-01-11T20:02:50.029Z,95099.34
2023-01-11T20:05:19.338Z,95095.56
2023-01-11T20:07:51.222Z,95099.72
2023-01-11T20:10:21.612Z,95096.63
2023-01-11T20:12:50.666Z,95092.84
2023-01-11T20:15:22.034Z,95093.38
2023-01-11T20:17:52.312Z,95089.53
2023-01-11T20:20:22.558Z,95097.63
2023-01-11T20:22:54.468Z,95096.53
2023-01-11T20:25:25.477Z,95090.94
2023-01-11T20:27:56.331Z,95084.50
2023-01-11T20:30:27.518Z,95083.09
2023-01-11T20:32:58.439Z,95090.06
2023-01-11T20:35:28.486Z,95081.13
2023-01-11T20:38:00.641Z,95082.53
2023-01-11T20:40:33.311Z,95080.94
2023-01-11T20:43:03.716Z,95086.19
2023-01-11T20:45:34.511Z,95096.09
2023-01-11T20:48:05.204Z,95098.41
2023-01-11T20:50:35.805Z,95092.34
2023-01-11T20:53:07.658Z,95080.19
2023-01-11T20:55:39.004Z,95079.44
2023-01-11T20:58:08.486Z,95077.44
2023-01-11T21:00:37.828Z,95081.22
2023-01-11T21:03:07.565Z,95075.53
2023-01-11T21:05:39.095Z,95071.91
2023-01-11T21:08:10.054Z,95076.34
2023-01-11T21:10:39.920Z,95076.84
2023-01-11T21:13:11.931Z,95079.91
2023-01-11T21:15:41.075Z,95078.66
2023-01-11T21:18:10.141Z,95073.16
2023-01-11T21:20:39.324Z,95071.69
2023-01-11T21:23:09.796Z,95075.91
2023-01-11T21:25:39.060Z,95071.38
2023-01-11T21:28:30.012Z,95072.81
2023-01-11T21:31:04.577Z,95072.16
2023-01-11T21:33:33.606Z,95083.44
2023-01-11T21:36:07.071Z,95085.06
2023-01-11T21:38:40.581Z,95085.53
2023-01-11T21:41:11.781Z,95085.25
2023-01-11T21:43:42.580Z,95087.69
2023-01-11T21:46:11.907Z,95081.03
2023-01-11T21:48:43.800Z,95088.50
2023-01-11T21:51:16.895Z,95088.88
2023-01-11T21:53:47.508Z,95075.78
2023-01-11T21:56:16.641Z,95081.81
2023-01-11T21:58:46.441Z,95070.31
2023-01-11T22:01:15.503Z,95068.25
2023-01-11T22:03:44.791Z,95062.06
2023-01-11T22:06:15.867Z,95053.41
2023-01-11T22:08:47.509Z,95063.00
2023-01-11T22:11:18.538Z,95059.53
2023-01-11T22:13:47.461Z,95064.78
2023-01-11T22:16:17.914Z,95071.25
2023-01-11T22:18:47.560Z,95068.56
2023-01-11T22:21:21.387Z,95066.22
2023-01-11T22:23:55.183Z,95062.97
2023-01-11T22:26:24.843Z,95071.16
2023-01-11T22:29:15.376Z,95069.19
2023-01-11T22:31:47.089Z,95079.47
2023-01-11T22:34:19.038Z,95074.41
2023-01-11T22:36:48.299Z,95078.91
2023-01-11T22:39:20.412Z,95076.28
2023-01-11T22:41:50.138Z,95078.00
2023-01-11T22:44:19.683Z,95079.63
2023-01-11T22:46:49.073Z,95095.66
2023-01-11T22:49:19.934Z,95091.22
2023-01-11T22:51:48.944Z,95084.25
2023-01-11T22:54:19.740Z,95081.88
2023-01-11T22:56:49.055Z,95076.41
2023-01-11T22:59:18.036Z,95071.22
2023-01-11T23:01:46.993Z,95073.53
2023-01-11T23:04:15.991Z,95079.16
2023-01-11T23:06:45.355Z,95077.44
2023-01-11T23:09:17.158Z,95084.91
2023-01-11T23:12:04.771Z,95078.63
2023-01-11T23:14:37.667Z,95070.56
2023-01-11T23:17:08.126Z,95061.38
2023-01-11T23:19:38.788Z,95057.09
2023-01-11T23:22:08.496Z,95061.91
2023-01-11T23:24:38.368Z,95073.13
2023-01-11T23:27:08.803Z,95060.81
2023-01-11T23:29:37.872Z,95063.22
2023-01-11T23:32:07.289Z,95058.78
2023-01-11T23:34:39.088Z,95055.56
2023-01-11T23:37:08.586Z,95065.31
2023-01-11T23:39:37.575Z,95059.91
2023-01-11T23:42:24.172Z,95065.16
2023-01-11T23:44:54.781Z,95068.97
2023-01-11T23:47:25.199Z,95065.06
2023-01-11T23:49:56.275Z,95061.41
2023-01-11T23:52:27.676Z,95065.19
2023-01-11T23:54:56.759Z,95062.28
2023-01-11T23:57:27.243Z,95062.53
2023-01-11T23:59:57.784Z,95056.13
